Time;durP1;ratioP1;P1;durP2;ratioP2;P2;SDS_P1;SDS_P2;PMS_P1;PMS_P2;Temp;Humidity;BMP_temperature;BMP_pressure;BME280_temperature;BME280_humidity;BME280_pressure;Samples;Min_cycle;Max_cycle;Signal;HPM_P1;HPM_P2
2022/04/08 00:00:34;;;;;;;6.95;1.80;;;8.70;99.90;;;;;;5073566;28;20676;-91
2022/04/08 00:03:01;;;;;;;4.38;2.13;;;8.70;99.90;;;;;;5073386;28;20201;-91
2022/04/08 00:05:28;;;;;;;6.63;1.70;;;8.70;99.90;;;;;;5075404;28;20314;-92
2022/04/08 00:07:55;;;;;;;5.38;2.00;;;8.70;99.90;;;;;;5079223;28;20220;-91
2022/04/08 00:10:22;;;;;;;2.97;1.80;;;8.70;99.90;;;;;;5075230;28;20221;-91
2022/04/08 00:12:48;;;;;;;3.70;1.90;;;8.70;99.90;;;;;;5075334;28;20207;-91
2022/04/08 00:15:16;;;;;;;3.85;1.70;;;8.60;99.90;;;;;;5074903;28;20205;-91
2022/04/08 00:17:43;;;;;;;2.75;1.20;;;8.60;99.90;;;;;;5076036;28;20200;-91
2022/04/08 00:20:11;;;;;;;6.70;2.33;;;8.70;99.90;;;;;;5075016;28;20220;-91
2022/04/08 00:22:42;;;;;;;6.43;1.98;;;8.70;99.90;;;;;;5075440;28;20216;-91
2022/04/08 00:25:09;;;;;;;3.92;1.70;;;8.70;99.90;;;;;;5075573;28;20416;-91
2022/04/08 00:27:36;;;;;;;3.72;1.67;;;8.70;99.90;;;;;;5076692;28;20224;-91
2022/04/08 00:30:03;;;;;;;4.35;1.98;;;8.70;99.90;;;;;;5076823;28;20224;-91
2022/04/08 00:32:33;;;;;;;6.53;2.15;;;8.60;99.90;;;;;;5094984;28;20192;-92
2022/04/08 00:35:00;;;;;;;4.78;1.65;;;8.60;99.90;;;;;;5082566;28;20735;-90
2022/04/08 00:37:27;;;;;;;5.43;2.85;;;8.60;99.90;;;;;;5074380;28;20654;-91
2022/04/08 00:39:54;;;;;;;3.95;1.98;;;8.50;99.90;;;;;;5074099;28;20722;-91
2022/04/08 00:42:20;;;;;;;7.63;1.83;;;8.50;99.70;;;;;;5074240;28;20704;-90
2022/04/08 00:44:47;;;;;;;5.50;1.85;;;8.50;99.80;;;;;;5074391;28;20223;-90
2022/04/08 00:47:15;;;;;;;3.10;1.63;;;8.50;99.80;;;;;;5073905;28;20217;-91
2022/04/08 00:49:43;;;;;;;3.78;1.70;;;8.50;99.70;;;;;;5073621;28;20326;-91
2022/04/08 00:52:11;;;;;;;2.60;1.45;;;8.50;99.60;;;;;;5074402;28;20201;-91
2022/04/08 00:54:38;;;;;;;3.58;1.60;;;8.50;99.30;;;;;;5073915;28;20212;-90
2022/04/08 00:57:05;;;;;;;3.00;1.50;;;8.50;99.50;;;;;;5074435;28;20197;-91
2022/04/08 00:59:33;;;;;;;3.97;2.10;;;8.50;99.30;;;;;;5075137;28;20220;-91
2022/04/08 01:01:59;;;;;;;5.05;1.83;;;8.50;99.20;;;;;;5074156;28;20588;-91
2022/04/08 01:04:27;;;;;;;3.45;1.70;;;8.50;99.40;;;;;;5073045;28;20204;-90
2022/04/08 01:06:55;;;;;;;5.07;2.20;;;8.50;99.20;;;;;;5073399;28;20567;-91
2022/04/08 01:09:22;;;;;;;4.93;2.05;;;8.50;99.30;;;;;;5073385;28;20281;-91
2022/04/08 01:11:49;;;;;;;3.15;1.60;;;8.50;99.20;;;;;;5073628;28;20204;-92
2022/04/08 01:14:17;;;;;;;3.38;1.58;;;8.50;99.10;;;;;;5073654;28;20209;-90
2022/04/08 01:16:44;;;;;;;4.50;1.65;;;8.50;98.70;;;;;;5073129;28;20660;-90
2022/04/08 01:19:11;;;;;;;6.22;2.03;;;8.40;98.90;;;;;;5073290;28;20220;-91
2022/04/08 01:21:38;;;;;;;3.92;1.70;;;8.40;98.90;;;;;;5073756;28;20257;-91
2022/04/08 01:24:11;;;;;;;3.08;1.55;;;8.40;98.90;;;;;;5074728;28;20204;-91
2022/04/08 01:26:40;;;;;;;8.27;1.88;;;8.40;98.90;;;;;;5073218;28;20294;-91
2022/04/08 01:29:07;;;;;;;3.92;1.60;;;8.40;99.10;;;;;;5072564;28;20220;-91
2022/04/08 01:31:33;;;;;;;4.18;1.60;;;8.40;99.20;;;;;;5072790;28;20262;-90
2022/04/08 01:34:00;;;;;;;3.30;1.55;;;8.30;99.20;;;;;;5072881;28;20209;-90
2022/04/08 01:36:27;;;;;;;3.67;1.67;;;8.30;99.50;;;;;;5073196;28;20211;-91
2022/04/08 01:38:54;;;;;;;6.15;2.08;;;8.30;99.50;;;;;;5072795;28;20204;-91
2022/04/08 01:41:21;;;;;;;2.65;1.70;;;8.30;99.20;;;;;;5072314;28;20220;-91
2022/04/08 01:43:49;;;;;;;3.03;1.58;;;8.30;98.50;;;;;;5073020;28;20312;-91
2022/04/08 01:46:16;;;;;;;4.25;1.80;;;8.30;98.70;;;;;;5072438;28;20587;-91
2022/04/08 01:48:43;;;;;;;4.70;1.90;;;8.30;98.60;;;;;;5072288;28;20641;-91
2022/04/08 01:51:09;;;;;;;3.08;1.45;;;8.30;98.70;;;;;;5072393;28;20450;-91
2022/04/08 01:53:36;;;;;;;3.97;1.85;;;8.30;98.00;;;;;;5072217;28;20200;-91
2022/04/08 01:56:03;;;;;;;5.32;1.55;;;8.30;97.70;;;;;;5072415;28;20211;-90
2022/04/08 01:58:29;;;;;;;1.48;1.20;;;8.30;97.50;;;;;;5072367;28;20689;-91
2022/04/08 02:00:58;;;;;;;3.92;1.60;;;8.30;97.70;;;;;;5072677;28;20220;-91
2022/04/08 02:03:25;;;;;;;3.90;1.77;;;8.20;97.90;;;;;;5074393;28;20200;-90
2022/04/08 02:05:52;;;;;;;3.97;1.42;;;8.20;97.80;;;;;;5095839;28;20176;-90
2022/04/08 02:08:19;;;;;;;4.25;2.05;;;8.20;97.90;;;;;;5097504;28;20224;-91
2022/04/08 02:10:46;;;;;;;2.40;1.48;;;8.20;97.90;;;;;;5097421;28;20209;-91
2022/04/08 02:13:12;;;;;;;5.80;1.70;;;8.20;97.70;;;;;;5097618;28;20184;-91
2022/04/08 02:15:39;;;;;;;5.78;1.60;;;8.20;98.00;;;;;;5074461;28;20192;-91
2022/04/08 02:18:08;;;;;;;5.15;1.23;;;8.10;98.10;;;;;;5072379;28;20196;-91
2022/04/08 02:20:35;;;;;;;3.25;1.30;;;8.10;98.20;;;;;;5072457;28;20257;-90
2022/04/08 02:23:04;;;;;;;2.88;1.60;;;8.00;98.30;;;;;;5072184;28;20196;-91
2022/04/08 02:25:30;;;;;;;2.55;1.20;;;8.00;98.60;;;;;;5072145;28;20227;-90
2022/04/08 02:27:57;;;;;;;2.95;1.55;;;8.00;98.70;;;;;;5072052;28;20223;-91
2022/04/08 02:30:24;;;;;;;7.22;1.75;;;7.90;99.00;;;;;;5072163;28;20227;-90
2022/04/08 02:32:51;;;;;;;10.02;2.38;;;7.90;98.90;;;;;;5072179;28;20253;-90
2022/04/08 02:35:20;;;;;;;3.75;1.95;;;7.90;99.20;;;;;;5072372;28;20570;-91
2022/04/08 02:37:49;;;;;;;4.68;1.40;;;7.80;99.20;;;;;;5072673;28;20206;-91
2022/04/08 02:40:16;;;;;;;4.28;1.83;;;7.80;99.20;;;;;;5072147;28;20234;-89
2022/04/08 02:42:42;;;;;;;3.70;2.22;;;7.80;99.40;;;;;;5071953;28;20212;-91
2022/04/08 02:45:09;;;;;;;2.17;1.73;;;7.80;99.50;;;;;;5072640;28;20196;-91
2022/04/08 02:47:41;;;;;;;4.57;1.73;;;7.70;99.60;;;;;;5072967;28;20216;-90
2022/04/08 02:50:09;;;;;;;4.18;2.35;;;7.70;99.60;;;;;;5109010;22;20745;-92
2022/04/08 02:52:37;;;;;;;3.67;1.42;;;7.70;99.60;;;;;;5069220;28;20201;-90
2022/04/08 02:55:08;;;;;;;3.05;1.23;;;7.60;99.70;;;;;;5052567;28;20196;-92
2022/04/08 02:57:44;;;;;;;5.35;1.73;;;7.60;99.70;;;;;;5052643;28;20219;-91
2022/04/08 03:00:13;;;;;;;3.30;1.63;;;7.60;99.70;;;;;;5046646;28;20225;-90
2022/04/08 03:02:40;;;;;;;3.35;1.60;;;7.60;99.60;;;;;;5032302;28;20211;-91
2022/04/08 03:05:08;;;;;;;4.78;1.50;;;7.60;98.50;;;;;;5032459;28;20248;-90
2022/04/08 03:07:36;;;;;;;1.95;1.15;;;7.70;98.00;;;;;;5032153;28;20230;-90
2022/04/08 03:10:04;;;;;;;3.03;1.27;;;7.70;98.00;;;;;;5031915;28;20229;-90
2022/04/08 03:12:32;;;;;;;3.95;1.30;;;7.70;97.70;;;;;;5032384;28;20209;-89
2022/04/08 03:14:59;;;;;;;3.17;1.55;;;7.70;97.50;;;;;;5032528;28;20209;-90
2022/04/08 03:17:26;;;;;;;5.07;1.50;;;7.70;97.70;;;;;;5033489;28;20221;-89
2022/04/08 03:19:53;;;;;;;3.53;1.65;;;7.60;97.40;;;;;;5032701;28;20276;-89
2022/04/08 03:22:20;;;;;;;4.53;1.63;;;7.60;97.70;;;;;;5032528;28;20579;-90
2022/04/08 03:24:49;;;;;;;3.20;1.60;;;7.60;97.50;;;;;;5032575;28;20217;-90
2022/04/08 03:27:16;;;;;;;1.48;1.20;;;7.60;97.40;;;;;;5034683;28;20733;-90
2022/04/08 03:29:43;;;;;;;3.70;1.60;;;7.50;97.60;;;;;;5036453;28;20205;-91
2022/04/08 03:32:11;;;;;;;4.57;1.52;;;7.50;97.70;;;;;;5036610;28;20710;-90
2022/04/08 03:34:38;;;;;;;2.55;1.70;;;7.50;97.60;;;;;;5038047;28;20197;-90
2022/04/08 03:37:06;;;;;;;2.55;1.50;;;7.50;97.50;;;;;;5040345;28;20289;-91
2022/04/08 03:39:33;;;;;;;6.25;1.95;;;7.50;97.60;;;;;;5031983;28;20206;-91
2022/04/08 03:42:01;;;;;;;4.60;1.50;;;7.50;97.70;;;;;;5032184;28;20206;-92
2022/04/08 03:44:28;;;;;;;3.95;1.63;;;7.50;97.50;;;;;;5030522;28;20209;-92
2022/04/08 03:46:55;;;;;;;2.53;1.45;;;7.40;97.40;;;;;;5025045;28;20190;-91
2022/04/08 03:49:22;;;;;;;5.25;1.58;;;7.40;97.60;;;;;;5027460;28;20226;-92
2022/04/08 03:54:46;;;;;;;3.25;1.85;;;7.30;97.80;;;;;;5020986;28;20209;-91
2022/04/08 03:57:44;;;;;;;2.90;1.30;;;7.40;97.40;;;;;;5039504;28;20197;-94
2022/04/08 04:03:22;;;;;;;4.82;1.83;;;7.40;97.60;;;;;;5037270;28;20187;-94
2022/04/08 04:08:34;;;;;;;3.45;1.63;;;7.50;97.40;;;;;;5024918;28;20218;-94
2022/04/08 04:14:22;;;;;;;2.65;1.70;;;7.50;97.70;;;;;;5039670;28;20251;-93
2022/04/08 04:16:49;;;;;;;5.75;2.00;;;7.50;97.40;;;;;;5030109;28;20625;-92
2022/04/08 04:19:16;;;;;;;7.55;1.85;;;7.50;97.30;;;;;;5028923;28;20225;-93
2022/04/08 04:21:56;;;;;;;3.72;1.88;;;7.50;97.50;;;;;;5032802;28;20225;-92
2022/04/08 04:24:23;;;;;;;3.75;1.67;;;7.50;97.50;;;;;;5025855;28;20221;-92
2022/04/08 04:26:50;;;;;;;3.10;1.40;;;7.50;97.50;;;;;;5029114;28;20660;-89
2022/04/08 04:29:24;;;;;;;2.28;1.40;;;7.50;97.80;;;;;;5023918;28;20596;-89
2022/04/08 04:31:55;;;;;;;3.67;1.80;;;7.50;97.90;;;;;;5030494;28;20641;-88
2022/04/08 04:34:22;;;;;;;4.15;1.83;;;7.50;97.80;;;;;;5036126;28;20209;-88
2022/04/08 04:36:49;;;;;;;3.70;1.50;;;7.50;97.40;;;;;;5035258;28;20300;-88
2022/04/08 04:39:16;;;;;;;3.30;1.30;;;7.50;97.80;;;;;;5037062;28;20571;-89
2022/04/08 04:41:45;;;;;;;3.10;1.60;;;7.50;98.20;;;;;;5035580;28;20316;-89
2022/04/08 04:44:12;;;;;;;4.40;2.00;;;7.40;98.00;;;;;;5034630;28;20201;-88
2022/04/08 04:46:41;;;;;;;7.30;1.60;;;7.40;97.90;;;;;;5034413;28;20205;-89
2022/04/08 04:49:08;;;;;;;3.75;1.35;;;7.40;98.10;;;;;;5034846;28;20273;-89
2022/04/08 04:51:35;;;;;;;6.18;2.25;;;7.40;98.20;;;;;;5034908;28;20237;-90
2022/04/08 04:54:01;;;;;;;6.90;2.35;;;7.30;98.30;;;;;;5034776;28;20208;-89
2022/04/08 04:56:29;;;;;;;6.75;2.00;;;7.30;98.20;;;;;;5035127;28;20669;-89
2022/04/08 04:58:59;;;;;;;3.90;1.50;;;7.40;98.30;;;;;;5034711;28;20201;-90
2022/04/08 05:01:26;;;;;;;5.65;1.65;;;7.40;98.30;;;;;;5034447;28;20234;-89
2022/04/08 05:03:54;;;;;;;3.25;1.20;;;7.40;98.50;;;;;;5035965;28;20293;-90
2022/04/08 05:06:21;;;;;;;2.83;1.70;;;7.30;99.00;;;;;;5037077;28;20214;-89
2022/04/08 05:08:47;;;;;;;2.10;1.33;;;7.30;98.70;;;;;;5034052;28;20232;-90
2022/04/08 05:11:15;;;;;;;2.20;1.40;;;7.40;99.30;;;;;;5029726;28;20725;-90
2022/04/08 05:13:42;;;;;;;3.17;1.90;;;7.30;99.20;;;;;;5025416;28;20289;-89
2022/04/08 05:16:09;;;;;;;5.95;1.92;;;7.40;99.00;;;;;;5023886;28;20689;-89
2022/04/08 05:18:42;;;;;;;5.82;1.80;;;7.30;98.20;;;;;;5022570;28;20222;-90
2022/04/08 05:21:10;;;;;;;2.92;1.85;;;7.30;98.30;;;;;;5028227;28;20225;-90
2022/04/08 05:23:37;;;;;;;4.22;1.88;;;7.30;98.60;;;;;;5029003;28;20202;-90
2022/04/08 05:26:04;;;;;;;7.70;1.75;;;7.30;98.60;;;;;;5033721;28;20572;-91
2022/04/08 05:28:31;;;;;;;3.30;1.50;;;7.20;98.90;;;;;;5034865;28;20232;-89
2022/04/08 05:30:58;;;;;;;3.10;1.63;;;7.20;98.60;;;;;;5033848;28;20232;-90
2022/04/08 05:33:25;;;;;;;7.15;2.08;;;7.30;98.70;;;;;;5036544;28;20701;-89
2022/04/08 05:35:52;;;;;;;3.65;1.65;;;7.30;98.50;;;;;;5034042;28;20229;-89
2022/04/08 05:38:20;;;;;;;4.28;1.70;;;7.30;98.30;;;;;;5035899;28;20213;-88
2022/04/08 05:40:49;;;;;;;2.90;1.40;;;7.30;98.30;;;;;;5033782;28;20232;-90
2022/04/08 05:43:16;;;;;;;6.95;1.67;;;7.30;98.20;;;;;;5035203;28;20260;-90
2022/04/08 05:45:46;;;;;;;7.43;1.70;;;7.30;98.40;;;;;;5033979;28;20205;-90
2022/04/08 05:48:13;;;;;;;2.78;1.70;;;7.40;98.60;;;;;;5033631;28;20228;-90
2022/04/08 05:50:40;;;;;;;3.50;1.48;;;7.40;98.50;;;;;;5034355;28;20599;-90
2022/04/08 05:53:06;;;;;;;3.95;1.90;;;7.50;98.30;;;;;;5034242;28;20202;-90
2022/04/08 05:55:37;;;;;;;3.15;1.88;;;7.50;98.30;;;;;;5033830;28;20210;-90
2022/04/08 05:58:03;;;;;;;9.35;2.28;;;7.50;98.50;;;;;;5033558;28;20202;-90
2022/04/08 06:00:33;;;;;;;4.07;1.90;;;7.50;99.10;;;;;;5033513;28;20222;-89
2022/04/08 06:03:06;;;;;;;3.88;1.70;;;7.50;99.60;;;;;;5034592;28;20297;-89
2022/04/08 06:05:33;;;;;;;3.20;1.50;;;7.50;99.50;;;;;;5033191;28;20211;-89
2022/04/08 06:08:01;;;;;;;4.63;2.05;;;7.60;99.90;;;;;;5033754;28;20227;-89
2022/04/08 06:10:28;;;;;;;4.50;1.63;;;7.60;99.90;;;;;;5034193;28;20249;-91
2022/04/08 06:12:57;;;;;;;4.57;1.33;;;7.60;99.90;;;;;;5033122;28;20210;-89
2022/04/08 06:15:24;;;;;;;4.10;1.50;;;7.50;99.90;;;;;;5033050;28;20205;-90
2022/04/08 06:17:52;;;;;;;2.92;1.23;;;7.50;99.90;;;;;;5033151;28;20581;-89
2022/04/08 06:20:20;;;;;;;5.93;1.80;;;7.50;99.90;;;;;;5033199;28;20225;-89
2022/04/08 06:22:48;;;;;;;3.17;1.65;;;7.50;99.90;;;;;;5032649;28;20233;-90
2022/04/08 06:25:16;;;;;;;1.92;1.35;;;7.50;99.90;;;;;;5032976;28;20233;-89
2022/04/08 06:27:45;;;;;;;5.50;1.60;;;7.40;99.90;;;;;;5033201;28;20289;-90
2022/04/08 06:30:15;;;;;;;5.00;1.55;;;7.40;99.90;;;;;;5033265;28;20217;-89
2022/04/08 06:32:43;;;;;;;1.85;1.45;;;7.40;99.90;;;;;;5032640;28;20264;-90
2022/04/08 06:35:10;;;;;;;8.05;1.90;;;7.30;99.90;;;;;;5033288;28;20212;-90
2022/04/08 06:37:39;;;;;;;3.13;1.55;;;7.30;99.90;;;;;;5032490;28;20208;-89
2022/04/08 06:40:08;;;;;;;7.90;1.73;;;7.30;99.90;;;;;;5040869;28;20214;-91
2022/04/08 06:42:36;;;;;;;5.30;2.33;;;7.30;99.90;;;;;;5023135;28;20205;-91
2022/04/08 06:45:05;;;;;;;3.85;1.60;;;7.30;99.90;;;;;;5034387;28;20224;-91
2022/04/08 06:47:34;;;;;;;6.57;1.77;;;7.20;99.90;;;;;;5027407;28;20194;-91
2022/04/08 06:50:04;;;;;;;4.70;2.15;;;7.20;99.90;;;;;;5016492;28;20268;-88
2022/04/08 06:52:31;;;;;;;2.13;1.30;;;7.10;99.90;;;;;;5028860;28;20644;-88
2022/04/08 06:54:57;;;;;;;4.70;1.75;;;6.90;99.90;;;;;;5034242;28;20217;-89
2022/04/08 06:57:24;;;;;;;3.08;1.45;;;6.90;99.90;;;;;;5034504;28;20201;-90
2022/04/08 06:59:51;;;;;;;5.03;1.90;;;6.90;99.90;;;;;;5035042;28;20226;-88
2022/04/08 07:05:04;;;;;;;2.17;1.50;;;6.90;99.90;;;;;;5039523;28;20595;-90
2022/04/08 07:07:33;;;;;;;3.15;1.63;;;6.70;99.90;;;;;;5045130;28;20201;-88
2022/04/08 07:10:00;;;;;;;2.10;1.25;;;6.50;99.90;;;;;;5038405;28;20231;-89
2022/04/08 07:12:28;;;;;;;2.90;1.40;;;6.40;99.90;;;;;;5038507;28;20206;-89
2022/04/08 07:14:55;;;;;;;3.20;1.42;;;6.30;99.90;;;;;;5039025;28;20301;-89
2022/04/08 07:17:28;;;;;;;3.33;1.42;;;6.30;99.90;;;;;;5038560;28;20293;-91
2022/04/08 07:19:56;;;;;;;2.35;1.65;;;6.30;99.90;;;;;;5037607;28;20655;-90
2022/04/08 07:22:24;;;;;;;6.57;1.90;;;6.30;99.90;;;;;;5037168;28;20204;-89
2022/04/08 07:24:52;;;;;;;3.08;1.40;;;6.40;99.90;;;;;;5038138;28;20209;-89
2022/04/08 07:27:23;;;;;;;3.97;1.40;;;6.50;99.90;;;;;;5038519;28;20212;-90
2022/04/08 07:33:23;;;;;;;4.30;2.00;;;6.60;99.90;;;;;;5002113;28;20259;-90
2022/04/08 07:41:59;;;;;;;3.40;1.60;;;6.40;99.90;;;;;;5059983;22;20229;-73
2022/04/08 07:44:26;;;;;;;2.05;1.38;;;6.40;99.90;;;;;;5052826;28;20719;-73
2022/04/08 07:46:53;;;;;;;2.45;1.30;;;6.50;99.90;;;;;;5052336;28;20229;-73
2022/04/08 07:49:19;;;;;;;3.55;2.20;;;6.50;99.90;;;;;;5052925;28;20567;-73
2022/04/08 07:51:46;;;;;;;2.58;1.30;;;6.60;99.90;;;;;;5052763;28;20201;-73
2022/04/08 07:54:12;;;;;;;1.60;1.45;;;6.60;99.90;;;;;;5052992;28;20201;-72
2022/04/08 07:56:39;;;;;;;1.60;1.20;;;6.60;99.90;;;;;;5052510;28;20225;-72
2022/04/08 07:59:07;;;;;;;1.85;1.48;;;6.40;99.90;;;;;;5052676;28;20197;-72
2022/04/08 08:01:34;;;;;;;1.75;1.17;;;6.50;99.90;;;;;;5052992;28;20205;-74
2022/04/08 08:04:01;;;;;;;2.28;1.20;;;6.80;99.90;;;;;;5052748;28;20205;-74
2022/04/08 08:06:27;;;;;;;2.55;1.52;;;7.00;99.90;;;;;;5052393;28;20228;-74
2022/04/08 08:08:55;;;;;;;4.22;1.30;;;6.90;99.90;;;;;;5052337;28;20217;-73
2022/04/08 08:11:22;;;;;;;4.80;1.40;;;6.90;99.90;;;;;;5052530;28;20659;-74
2022/04/08 08:13:48;;;;;;;3.22;1.60;;;6.80;99.90;;;;;;5051339;28;20201;-72
2022/04/08 08:16:16;;;;;;;1.52;1.10;;;6.70;99.90;;;;;;5052575;28;20291;-73
2022/04/08 08:18:43;;;;;;;1.20;1.05;;;6.60;99.90;;;;;;5051945;28;20212;-73
2022/04/08 08:21:10;;;;;;;1.30;1.20;;;6.60;99.90;;;;;;5052440;28;20212;-73
2022/04/08 08:23:36;;;;;;;3.28;1.05;;;6.70;99.90;;;;;;5052170;28;20205;-73
2022/04/08 08:26:03;;;;;;;1.27;1.17;;;6.80;99.90;;;;;;5052104;28;20225;-73
2022/04/08 08:28:30;;;;;;;3.17;1.52;;;6.70;99.90;;;;;;5051588;28;20201;-73
2022/04/08 08:30:57;;;;;;;1.20;0.90;;;6.60;99.90;;;;;;5052341;28;20210;-73
2022/04/08 08:33:25;;;;;;;2.78;2.00;;;6.70;99.90;;;;;;5052449;28;20197;-73
2022/04/08 08:35:51;;;;;;;3.40;1.40;;;6.60;99.90;;;;;;5051920;28;20217;-73
2022/04/08 08:38:19;;;;;;;1.25;1.10;;;6.60;99.90;;;;;;5052190;28;20208;-73
2022/04/08 08:40:46;;;;;;;4.20;1.20;;;6.70;99.90;;;;;;5052022;28;20205;-73
2022/04/08 08:43:18;;;;;;;2.13;1.05;;;6.80;99.90;;;;;;5052290;28;20205;-73
2022/04/08 08:45:45;;;;;;;1.52;1.20;;;6.90;99.90;;;;;;5051770;28;20490;-73
2022/04/08 08:48:15;;;;;;;3.28;1.42;;;7.00;99.90;;;;;;5051829;28;20608;-73
2022/04/08 08:50:46;;;;;;;4.53;1.40;;;7.10;99.90;;;;;;5128273;22;20362;-68
2022/04/08 08:53:17;;;;;;;3.80;1.40;;;7.00;99.90;;;;;;5072239;28;20246;-67
2022/04/08 08:55:44;;;;;;;2.05;1.33;;;6.90;99.90;;;;;;5067362;28;20252;-68
2022/04/08 08:58:11;;;;;;;2.03;1.30;;;6.90;99.90;;;;;;5051166;28;20620;-67
2022/04/08 09:00:38;;;;;;;2.30;1.23;;;6.90;99.90;;;;;;5051765;28;20201;-67
2022/04/08 09:03:05;;;;;;;1.75;1.20;;;6.80;99.90;;;;;;5051792;28;20278;-68
2022/04/08 09:05:41;;;;;;;1.27;1.17;;;6.70;99.90;;;;;;5051429;28;20201;-67
2022/04/08 09:08:10;;;;;;;1.65;1.35;;;6.80;99.90;;;;;;5051276;28;20292;-67
2022/04/08 09:10:38;;;;;;;1.35;1.25;;;6.70;99.90;;;;;;5051418;28;20233;-67
2022/04/08 09:13:07;;;;;;;1.45;1.35;;;6.80;99.90;;;;;;5051962;28;20205;-68
2022/04/08 09:15:37;;;;;;;1.45;1.00;;;6.90;99.90;;;;;;5051155;28;20761;-68
2022/04/08 09:18:12;;;;;;;1.67;1.10;;;7.10;99.90;;;;;;5051438;28;20342;-68
2022/04/08 09:20:44;;;;;;;1.10;1.00;;;7.20;99.90;;;;;;5050962;28;20204;-67
2022/04/08 09:23:14;;;;;;;1.73;1.00;;;7.30;99.90;;;;;;5051730;28;20218;-68
2022/04/08 09:25:41;;;;;;;2.10;1.38;;;7.30;99.90;;;;;;5050846;28;20236;-68
2022/04/08 09:28:09;;;;;;;1.92;1.00;;;7.30;99.90;;;;;;5051054;28;20201;-68
2022/04/08 09:30:36;;;;;;;2.13;1.17;;;7.30;99.90;;;;;;5051261;28;20229;-68
2022/04/08 09:33:13;;;;;;;2.05;1.30;;;7.30;99.90;;;;;;5051503;28;20209;-67
2022/04/08 09:35:41;;;;;;;1.55;1.00;;;7.40;99.90;;;;;;5052027;28;20236;-67
2022/04/08 09:38:08;;;;;;;2.58;1.30;;;7.50;99.90;;;;;;5051417;28;20631;-67
2022/04/08 09:40:37;;;;;;;0.90;0.80;;;7.60;99.90;;;;;;5053836;28;20208;-67
2022/04/08 09:43:05;;;;;;;1.20;0.90;;;7.60;99.90;;;;;;5052053;28;20262;-67
2022/04/08 09:45:32;;;;;;;1.92;1.10;;;7.70;99.90;;;;;;5050782;28;20235;-68
2022/04/08 09:47:59;;;;;;;1.50;1.00;;;7.60;99.90;;;;;;5041115;28;20548;-67
2022/04/08 09:50:27;;;;;;;3.38;1.48;;;7.60;99.90;;;;;;5049151;28;20701;-67
2022/04/08 09:52:54;;;;;;;2.00;1.20;;;7.60;99.90;;;;;;5050329;28;20228;-68
2022/04/08 09:55:23;;;;;;;2.30;1.13;;;7.50;99.90;;;;;;5048441;28;20294;-67
2022/04/08 09:57:58;;;;;;;1.30;1.08;;;7.60;99.90;;;;;;5049170;28;20201;-68
2022/04/08 10:00:26;;;;;;;1.42;1.20;;;7.70;99.90;;;;;;5049489;28;20196;-68
2022/04/08 10:02:55;;;;;;;1.38;0.90;;;7.60;99.90;;;;;;5049462;28;20201;-68
2022/04/08 10:05:23;;;;;;;1.95;0.93;;;7.60;99.90;;;;;;5048997;28;20212;-67
2022/04/08 10:07:53;;;;;;;1.30;1.10;;;7.70;99.90;;;;;;5049587;28;20227;-69
2022/04/08 10:10:26;;;;;;;1.40;1.00;;;7.80;99.90;;;;;;5047427;28;20308;-68
2022/04/08 10:13:11;;;;;;;2.38;1.20;;;7.80;99.90;;;;;;5049116;28;20594;-69
2022/04/08 10:15:43;;;;;;;1.27;1.17;;;8.00;99.90;;;;;;5048434;28;20229;-69
2022/04/08 10:18:10;;;;;;;2.10;1.40;;;8.10;99.90;;;;;;5048534;28;20680;-69
2022/04/08 10:20:39;;;;;;;1.92;1.40;;;8.20;99.90;;;;;;5048661;28;20290;-69
2022/04/08 10:23:09;;;;;;;1.00;0.90;;;8.30;99.90;;;;;;5048944;28;20200;-68
2022/04/08 10:25:38;;;;;;;1.55;0.98;;;8.40;99.90;;;;;;5048328;28;20237;-68
2022/04/08 10:28:08;;;;;;;1.77;1.17;;;8.40;99.90;;;;;;5048726;28;20262;-68
2022/04/08 10:30:36;;;;;;;1.63;1.23;;;8.40;99.90;;;;;;5048425;28;20225;-68
2022/04/08 10:33:07;;;;;;;2.00;1.10;;;8.40;99.90;;;;;;5048624;28;20255;-68
2022/04/08 10:35:37;;;;;;;2.55;1.10;;;8.30;99.90;;;;;;5047849;28;20221;-68
2022/04/08 10:38:05;;;;;;;1.38;1.05;;;8.20;99.90;;;;;;5048173;28;20642;-68
2022/04/08 10:40:35;;;;;;;1.92;1.17;;;8.20;99.90;;;;;;5049055;28;20920;-68
2022/04/08 10:43:03;;;;;;;1.40;1.20;;;8.20;99.90;;;;;;5048940;28;20211;-68
2022/04/08 10:45:32;;;;;;;1.10;1.00;;;8.20;99.90;;;;;;5047642;28;20280;-68
2022/04/08 10:48:13;;;;;;;2.00;0.98;;;8.20;99.90;;;;;;5049118;28;20584;-68
2022/04/08 10:50:41;;;;;;;1.35;1.25;;;8.20;99.90;;;;;;5048321;28;20734;-67
2022/04/08 10:53:10;;;;;;;2.10;1.17;;;8.20;99.90;;;;;;5048515;28;20232;-67
2022/04/08 10:55:47;;;;;;;3.03;1.42;;;8.20;99.90;;;;;;5048337;28;20308;-68
2022/04/08 10:58:15;;;;;;;1.83;1.20;;;8.30;99.90;;;;;;5048327;28;20669;-67
2022/04/08 11:00:44;;;;;;;1.65;1.38;;;8.20;99.90;;;;;;5048279;28;20266;-68
2022/04/08 11:03:11;;;;;;;1.90;1.17;;;8.10;99.90;;;;;;5048570;28;20208;-67
2022/04/08 11:05:39;;;;;;;1.58;1.10;;;8.10;99.90;;;;;;5048568;28;20594;-68
2022/04/08 11:08:07;;;;;;;2.75;1.40;;;8.00;99.90;;;;;;5047731;28;20577;-68
2022/04/08 11:10:35;;;;;;;2.10;1.45;;;7.90;99.90;;;;;;5049024;28;20656;-68
2022/04/08 11:13:02;;;;;;;1.63;1.30;;;7.90;99.90;;;;;;5049481;28;20209;-68
2022/04/08 11:15:30;;;;;;;2.33;1.40;;;7.80;99.90;;;;;;5048401;28;20296;-68
2022/04/08 11:18:01;;;;;;;3.80;1.60;;;7.70;99.90;;;;;;5048599;28;20637;-68
2022/04/08 11:20:28;;;;;;;2.05;1.58;;;7.70;99.90;;;;;;5048762;28;20706;-69
2022/04/08 11:22:58;;;;;;;2.85;1.58;;;7.70;99.90;;;;;;5048405;28;20212;-69
2022/04/08 11:25:27;;;;;;;2.40;1.75;;;7.60;99.90;;;;;;5048955;28;20201;-68
2022/04/08 11:28:01;;;;;;;1.40;1.30;;;7.60;99.90;;;;;;5047761;28;20304;-68
2022/04/08 11:30:29;;;;;;;2.08;1.52;;;7.60;99.90;;;;;;5047715;28;20592;-67
2022/04/08 11:32:56;;;;;;;2.05;1.58;;;7.60;99.90;;;;;;5048100;28;20201;-68
2022/04/08 11:35:28;;;;;;;2.38;2.03;;;7.60;99.90;;;;;;5047685;28;20204;-67
2022/04/08 11:37:55;;;;;;;2.00;1.60;;;7.50;99.90;;;;;;5047391;28;20737;-68
2022/04/08 11:40:22;;;;;;;1.80;1.65;;;7.50;99.90;;;;;;5048414;28;20295;-68
2022/04/08 11:42:49;;;;;;;1.40;1.17;;;7.50;99.90;;;;;;5048615;28;20212;-67
2022/04/08 11:45:17;;;;;;;1.77;1.65;;;7.50;99.90;;;;;;5046983;28;20262;-67
2022/04/08 11:47:47;;;;;;;1.70;1.23;;;7.50;99.90;;;;;;5047882;28;20205;-68
2022/04/08 11:50:14;;;;;;;2.50;1.58;;;7.60;99.90;;;;;;5052491;28;20232;-68
2022/04/08 11:52:52;;;;;;;1.75;1.65;;;7.70;99.90;;;;;;5051995;28;20201;-68
2022/04/08 11:55:23;;;;;;;2.45;1.88;;;7.80;99.90;;;;;;5052345;28;20262;-69
2022/04/08 11:57:50;;;;;;;1.88;1.50;;;7.80;99.90;;;;;;5051592;28;20247;-67
2022/04/08 12:00:18;;;;;;;1.35;1.25;;;7.90;99.90;;;;;;5051458;28;20579;-68
2022/04/08 12:02:47;;;;;;;2.03;1.60;;;7.80;99.90;;;;;;5052285;28;20205;-68
2022/04/08 12:05:19;;;;;;;2.35;1.70;;;7.60;99.90;;;;;;5052325;28;20200;-68
2022/04/08 12:07:48;;;;;;;2.50;1.83;;;7.60;99.90;;;;;;5051532;28;20795;-68
2022/04/08 12:10:15;;;;;;;2.22;1.65;;;7.60;99.90;;;;;;5052050;28;20220;-68
2022/04/08 12:12:46;;;;;;;3.70;2.45;;;7.60;99.90;;;;;;5052007;28;20553;-69
2022/04/08 12:15:13;;;;;;;1.83;1.70;;;7.60;99.90;;;;;;5051523;28;20233;-70
2022/04/08 12:17:40;;;;;;;1.98;1.75;;;7.60;99.90;;;;;;5051844;28;20664;-70
2022/04/08 12:20:13;;;;;;;7.15;2.30;;;7.50;99.90;;;;;;5052654;28;20279;-69
2022/04/08 12:22:40;;;;;;;1.45;1.35;;;7.50;99.90;;;;;;5051627;28;20209;-70
2022/04/08 12:25:09;;;;;;;1.60;1.50;;;7.40;99.90;;;;;;5051445;28;20197;-69
2022/04/08 12:27:35;;;;;;;1.60;1.40;;;7.40;99.90;;;;;;5050643;28;20720;-69
2022/04/08 12:30:08;;;;;;;4.18;2.00;;;7.40;99.90;;;;;;5051628;28;20209;-69
2022/04/08 12:32:35;;;;;;;2.17;1.88;;;7.30;99.90;;;;;;5051427;28;20201;-69
2022/04/08 12:35:02;;;;;;;3.10;2.45;;;7.30;99.90;;;;;;5051415;28;20255;-69
2022/04/08 12:37:29;;;;;;;3.55;2.80;;;7.30;99.90;;;;;;5050079;28;20232;-69
2022/04/08 12:39:56;;;;;;;3.20;2.45;;;7.30;99.90;;;;;;5048771;28;20315;-69
2022/04/08 12:42:24;;;;;;;3.80;2.40;;;7.30;99.90;;;;;;5051407;28;20233;-69
2022/04/08 12:44:51;;;;;;;3.08;2.03;;;7.30;99.90;;;;;;5051191;28;20259;-69
2022/04/08 12:47:17;;;;;;;3.50;2.78;;;7.40;99.90;;;;;;5049922;28;20652;-69
2022/04/08 12:49:44;;;;;;;4.72;3.80;;;7.50;99.90;;;;;;5051382;28;20212;-69
2022/04/08 12:52:11;;;;;;;3.13;2.38;;;7.50;99.90;;;;;;5050719;28;20225;-69
2022/04/08 12:54:38;;;;;;;1.92;1.70;;;7.50;99.90;;;;;;5050185;28;20283;-69
2022/04/08 12:57:05;;;;;;;2.90;2.25;;;7.50;99.90;;;;;;5049960;28;20335;-69
2022/04/08 12:59:33;;;;;;;2.90;1.88;;;7.50;99.90;;;;;;5050572;28;20205;-69
2022/04/08 13:02:00;;;;;;;2.00;1.80;;;7.50;99.90;;;;;;5050822;28;20576;-69
2022/04/08 13:04:27;;;;;;;1.60;1.50;;;7.30;99.90;;;;;;5050359;28;20283;-69
2022/04/08 13:06:57;;;;;;;1.50;1.40;;;7.10;99.90;;;;;;5050341;28;20240;-70
2022/04/08 13:09:24;;;;;;;2.78;2.20;;;7.00;99.90;;;;;;5050378;28;20207;-69
2022/04/08 13:11:51;;;;;;;2.35;2.10;;;6.90;99.90;;;;;;5050033;28;20228;-69
2022/04/08 13:14:18;;;;;;;1.70;1.60;;;6.90;99.90;;;;;;5050436;28;20212;-70
2022/04/08 13:16:47;;;;;;;2.55;2.35;;;6.90;99.90;;;;;;5049359;28;20613;-69
2022/04/08 13:19:14;;;;;;;2.00;1.85;;;7.00;99.90;;;;;;5050648;28;20205;-69
2022/04/08 13:21:41;;;;;;;2.40;2.20;;;7.00;99.90;;;;;;5050478;28;20205;-69
2022/04/08 13:24:08;;;;;;;1.70;1.60;;;7.10;99.90;;;;;;5049622;28;20208;-69
2022/04/08 13:26:35;;;;;;;2.10;1.90;;;7.10;99.90;;;;;;5049370;28;20253;-69